createdAt,value
2023-03-10T00:04:53.366Z,66.15
2023-03-10T00:09:54.846Z,66.95
2023-03-10T00:14:56.440Z,67.79
2023-03-10T00:19:57.819Z,68.31
2023-03-10T00:24:59.292Z,68.94
2023-03-10T00:30:01.134Z,68.67
2023-03-10T00:35:02.594Z,69.47
2023-03-10T00:40:07.282Z,70.26
2023-03-10T00:45:10.276Z,70.44
2023-03-10T00:50:11.875Z,70.99
2023-03-10T00:55:13.281Z,71.55
2023-03-10T01:00:17.830Z,71.89
2023-03-10T01:05:19.610Z,72.55
2023-03-10T01:10:22.180Z,74.17
2023-03-10T01:15:23.559Z,74.47
2023-03-10T01:20:25.050Z,74.68
2023-03-10T01:25:28.096Z,75.02
2023-03-10T01:30:29.446Z,75.50
2023-03-10T01:35:31.278Z,76.09
2023-03-10T01:40:32.790Z,76.42
2023-03-10T01:45:34.159Z,76.38
2023-03-10T01:50:35.836Z,77.36
2023-03-10T01:55:43.550Z,77.25
2023-03-10T02:00:44.985Z,76.81
2023-03-10T02:05:51.906Z,76.76
2023-03-10T02:10:53.767Z,76.88
2023-03-10T02:15:55.172Z,76.60
2023-03-10T02:21:20.061Z,76.23
2023-03-10T02:26:39.987Z,76.57
2023-03-10T02:31:42.086Z,77.13
2023-03-10T02:36:43.487Z,76.78
2023-03-10T02:41:45.924Z,77.04
2023-03-10T02:46:47.682Z,76.54
2023-03-10T02:51:49.187Z,76.55
2023-03-10T02:56:50.625Z,76.60
2023-03-10T03:01:52.058Z,76.76
2023-03-10T03:06:53.424Z,76.82
2023-03-10T03:11:54.832Z,77.79
2023-03-10T03:16:56.188Z,86.58
2023-03-10T03:21:57.497Z,89.56
2023-03-10T03:26:59.292Z,91.45
2023-03-10T03:32:00.657Z,90.67
2023-03-10T03:37:02.037Z,90.36
2023-03-10T03:42:03.662Z,89.20
2023-03-10T03:47:05.305Z,89.09
2023-03-10T03:52:07.499Z,87.55
2023-03-10T03:57:09.110Z,86.39
2023-03-10T04:02:10.686Z,85.42
2023-03-10T04:07:12.150Z,84.98
2023-03-10T04:12:13.474Z,85.09
2023-03-10T04:17:14.790Z,85.42
2023-03-10T04:22:16.228Z,85.98
2023-03-10T04:27:17.574Z,86.28
2023-03-10T04:32:19.323Z,86.20
2023-03-10T04:37:21.758Z,86.42
2023-03-10T04:42:24.203Z,86.39
2023-03-10T04:47:26.001Z,86.11
2023-03-10T04:52:27.529Z,85.77
2023-03-10T04:57:28.967Z,85.19
2023-03-10T05:02:32.119Z,84.75
2023-03-10T05:07:33.552Z,84.14
2023-03-10T05:12:34.935Z,83.88
2023-03-10T05:17:36.313Z,83.59
2023-03-10T05:22:38.835Z,83.80
2023-03-10T05:27:40.263Z,83.24
2023-03-10T05:32:43.112Z,82.91
2023-03-10T05:37:44.827Z,83.33
2023-03-10T05:42:47.381Z,83.07
2023-03-10T05:47:48.829Z,83.15
2023-03-10T05:52:50.459Z,83.81
2023-03-10T05:57:51.905Z,84.11
2023-03-10T06:02:53.385Z,83.75
2023-03-10T06:07:54.866Z,83.86
2023-03-10T06:12:56.365Z,84.13
2023-03-10T06:17:57.759Z,83.99
2023-03-10T06:22:59.413Z,85.04
2023-03-10T06:28:00.745Z,85.13
2023-03-10T06:33:02.702Z,86.26
2023-03-10T06:38:04.038Z,87.01
2023-03-10T06:43:05.445Z,87.31
2023-03-10T06:48:06.908Z,87.95
2023-03-10T06:53:09.719Z,87.98
2023-03-10T06:58:11.193Z,88.23
2023-03-10T07:03:12.746Z,89.14
2023-03-10T07:08:14.116Z,89.20
2023-03-10T07:13:17.135Z,92.50
2023-03-10T07:18:19.416Z,93.91
2023-03-10T07:23:20.915Z,93.33
2023-03-10T07:28:23.742Z,92.98
2023-03-10T07:33:25.252Z,93.44
2023-03-10T07:38:26.614Z,92.74
2023-03-10T07:43:27.999Z,92.17
2023-03-10T07:48:29.544Z,91.00
2023-03-10T07:53:31.498Z,90.73
2023-03-10T07:58:34.181Z,90.19
2023-03-10T08:03:36.012Z,89.65
2023-03-10T08:08:38.151Z,89.26
2023-03-10T08:13:40.303Z,88.00
2023-03-10T08:18:42.270Z,86.62
2023-03-10T08:23:43.888Z,88.57
2023-03-10T08:28:47.189Z,90.89
2023-03-10T08:33:49.656Z,93.18
2023-03-10T08:38:53.039Z,93.52
2023-03-10T08:43:56.146Z,93.60
2023-03-10T08:48:58.687Z,91.45
2023-03-10T08:54:00.409Z,89.48
2023-03-10T08:59:01.730Z,87.13
2023-03-10T09:04:05.237Z,85.70
2023-03-10T09:09:08.767Z,84.29
2023-03-10T09:14:11.833Z,80.45
2023-03-10T09:19:13.174Z,75.23
2023-03-10T09:24:14.507Z,74.94
2023-03-10T09:29:16.297Z,71.85
2023-03-10T09:34:17.673Z,70.19
2023-03-10T09:39:19.428Z,69.56
2023-03-10T09:44:39.066Z,71.54
2023-03-10T09:49:54.047Z,71.25
2023-03-10T09:55:29.991Z,71.31
2023-03-10T10:00:40.657Z,70.11
2023-03-10T10:05:44.383Z,65.98
2023-03-10T10:10:49.371Z,64.75
2023-03-10T10:16:18.299Z,65.89
2023-03-10T10:21:42.331Z,65.95
2023-03-10T10:26:44.365Z,66.49
2023-03-10T10:32:04.401Z,66.21
2023-03-10T10:37:28.275Z,66.82
2023-03-10T10:42:34.538Z,67.29
2023-03-10T10:47:47.357Z,65.79
2023-03-10T10:52:52.989Z,64.92
2023-03-10T10:58:01.762Z,60.61
2023-03-10T11:03:31.298Z,50.20
2023-03-10T11:08:39.261Z,39.78
2023-03-10T11:14:00.083Z,36.39
2023-03-10T11:19:13.258Z,38.91
2023-03-10T11:24:48.037Z,39.62
2023-03-10T11:29:55.204Z,39.26
2023-03-10T11:34:58.277Z,38.49
2023-03-10T11:40:08.611Z,45.09
2023-03-10T11:45:27.588Z,52.48
2023-03-10T11:50:28.889Z,56.86
2023-03-10T11:55:30.611Z,58.32
2023-03-10T12:00:39.575Z,59.91
2023-03-10T12:05:50.913Z,60.24
2023-03-10T12:10:53.660Z,60.26
2023-03-10T12:16:00.757Z,60.56
2023-03-10T12:21:12.045Z,62.46
2023-03-10T12:26:14.495Z,66.98
2023-03-10T12:31:37.521Z,70.08
2023-03-10T12:36:43.286Z,71.23
2023-03-10T12:41:49.503Z,70.19
2023-03-10T12:47:09.151Z,70.65
2023-03-10T12:52:28.492Z,72.00
2023-03-10T12:57:38.919Z,72.87
2023-03-10T13:02:50.803Z,74.63
2023-03-10T13:07:57.046Z,76.32
2023-03-10T13:13:05.699Z,78.85
2023-03-10T13:18:21.172Z,79.94
2023-03-10T13:23:25.761Z,82.14
2023-03-10T13:28:30.126Z,83.24
2023-03-10T13:33:37.423Z,85.43
2023-03-10T13:38:45.243Z,84.54
2023-03-10T13:43:48.531Z,84.39
2023-03-10T13:48:50.699Z,85.35
2023-03-10T13:53:55.183Z,86.78
2023-03-10T13:59:01.865Z,86.05
2023-03-10T14:04:08.616Z,86.83
2023-03-10T14:09:12.896Z,88.50
2023-03-10T14:14:33.146Z,89.73
2023-03-10T14:19:38.608Z,90.37
2023-03-10T14:24:40.631Z,90.53
2023-03-10T14:29:49.886Z,91.72
2023-03-10T14:34:51.634Z,92.00
2023-03-10T14:39:53.135Z,92.54
2023-03-10T14:44:54.549Z,93.18
2023-03-10T14:49:56.032Z,93.95
2023-03-10T14:54:57.337Z,92.55
2023-03-10T15:00:00.651Z,91.68
2023-03-10T15:05:02.107Z,90.39
2023-03-10T15:10:11.922Z,88.22
2023-03-10T15:15:26.381Z,87.08
2023-03-10T15:20:27.973Z,83.31
2023-03-10T15:25:30.309Z,80.83
2023-03-10T15:30:36.256Z,79.78
2023-03-10T15:35:38.833Z,78.91
2023-03-10T15:40:41.603Z,76.17
2023-03-10T15:45:46.770Z,75.58
2023-03-10T15:50:49.120Z,76.05
2023-03-10T15:55:52.511Z,76.16
2023-03-10T16:00:53.875Z,75.94
2023-03-10T16:05:55.240Z,75.70
2023-03-10T16:10:56.689Z,75.39
2023-03-10T16:15:58.296Z,75.08
2023-03-10T16:21:01.676Z,73.42
2023-03-10T16:26:10.645Z,71.96
2023-03-10T16:31:14.213Z,71.34
2023-03-10T16:36:18.366Z,70.58
2023-03-10T16:41:21.086Z,69.88
2023-03-10T16:46:25.524Z,69.24
2023-03-10T16:51:35.118Z,68.71
2023-03-10T16:56:39.550Z,69.81
2023-03-10T17:01:41.068Z,70.87
2023-03-10T17:06:43.108Z,70.50
2023-03-10T17:11:55.280Z,69.99
2023-03-10T17:16:57.086Z,69.83
2023-03-10T17:21:58.999Z,69.60
2023-03-10T17:27:00.417Z,68.22
2023-03-10T17:32:01.785Z,68.27
2023-03-10T17:37:03.194Z,68.37
2023-03-10T17:42:04.844Z,67.58
2023-03-10T17:47:06.333Z,66.83
2023-03-10T17:52:07.725Z,67.27
2023-03-10T17:57:09.229Z,66.87
2023-03-10T18:02:12.341Z,66.41
2023-03-10T18:07:14.023Z,65.54
2023-03-10T18:12:16.291Z,65.88
2023-03-10T18:17:17.613Z,65.62
2023-03-10T18:22:19.264Z,67.33
2023-03-10T18:27:20.598Z,69.08
2023-03-10T18:32:24.271Z,68.34
2023-03-10T18:37:26.532Z,69.04
2023-03-10T18:42:28.366Z,70.35
2023-03-10T18:47:29.800Z,69.82
2023-03-10T18:52:32.965Z,64.65
2023-03-10T18:57:34.593Z,57.86
2023-03-10T19:02:36.305Z,57.41
2023-03-10T19:07:37.890Z,57.68
2023-03-10T19:12:39.871Z,59.02
2023-03-10T19:17:41.882Z,56.96
2023-03-10T19:22:47.302Z,61.09
2023-03-10T19:27:48.926Z,59.00
2023-03-10T19:32:50.424Z,59.05
2023-03-10T19:37:51.823Z,58.36
2023-03-10T19:42:53.263Z,59.72
2023-03-10T19:48:00.898Z,60.37
2023-03-10T19:53:02.427Z,59.52
2023-03-10T19:58:03.815Z,58.80
2023-03-10T20:03:05.427Z,59.98
2023-03-10T20:08:08.226Z,58.77
2023-03-10T20:13:09.671Z,59.37
2023-03-10T20:18:11.432Z,60.19
2023-03-10T20:23:13.546Z,60.84
2023-03-10T20:28:15.517Z,60.69
2023-03-10T20:33:21.215Z,61.63
2023-03-10T20:38:22.832Z,60.79
2023-03-10T20:43:24.308Z,60.82
2023-03-10T20:48:25.724Z,61.45
2023-03-10T20:53:27.800Z,61.76
2023-03-10T20:58:29.686Z,61.59
2023-03-10T21:03:31.147Z,62.02
2023-03-10T21:08:32.531Z,62.79
2023-03-10T21:13:34.453Z,61.67
2023-03-10T21:18:36.016Z,62.74
2023-03-10T21:23:39.076Z,62.86
2023-03-10T21:28:41.254Z,63.70
2023-03-10T21:33:42.781Z,63.63
2023-03-10T21:38:47.251Z,64.29
2023-03-10T21:43:49.168Z,62.55
2023-03-10T21:48:50.604Z,63.74
2023-03-10T21:53:56.224Z,63.44
2023-03-10T21:58:58.456Z,63.32
2023-03-10T22:03:59.914Z,63.61
2023-03-10T22:09:01.424Z,64.25
2023-03-10T22:14:03.302Z,63.37
2023-03-10T22:19:04.787Z,65.13
2023-03-10T22:24:06.390Z,62.77
2023-03-10T22:29:07.740Z,62.86
2023-03-10T22:34:09.170Z,62.75
2023-03-10T22:39:12.146Z,62.42
2023-03-10T22:44:13.571Z,63.20
2023-03-10T22:49:15.034Z,61.88
2023-03-10T22:54:16.340Z,63.52
2023-03-10T22:59:18.388Z,63.33
2023-03-10T23:04:19.715Z,64.23
2023-03-10T23:09:21.081Z,66.35
2023-03-10T23:14:22.514Z,67.58
2023-03-10T23:19:23.888Z,69.67
2023-03-10T23:24:25.350Z,69.33
2023-03-10T23:29:26.999Z,69.30
2023-03-10T23:34:28.350Z,68.89
2023-03-10T23:39:29.820Z,69.30
2023-03-10T23:44:31.196Z,69.66
2023-03-10T23:49:33.209Z,70.88
2023-03-10T23:54:34.584Z,69.16
2023-03-10T23:59:35.956Z,68.19
